createdAt,value
2023-04-10T00:00:48.904Z,6.07
2023-04-10T00:03:18.055Z,7.13
2023-04-10T00:05:44.928Z,8.27
2023-04-10T00:08:11.448Z,7.28
2023-04-10T00:10:38.069Z,7.47
2023-04-10T00:13:04.818Z,7.65
2023-04-10T00:15:31.382Z,8.57
2023-04-10T00:17:57.957Z,8.10
2023-04-10T00:20:26.455Z,7.50
2023-04-10T00:22:53.109Z,8.02
2023-04-10T00:25:19.778Z,8.35
2023-04-10T00:27:46.331Z,8.07
2023-04-10T00:30:12.923Z,7.85
2023-04-10T00:32:39.672Z,9.75
2023-04-10T00:35:08.139Z,8.25
2023-04-10T00:37:34.706Z,8.50
2023-04-10T00:40:01.712Z,8.45
2023-04-10T00:42:28.279Z,7.72
2023-04-10T00:44:54.829Z,8.02
2023-04-10T00:47:21.803Z,8.30
2023-04-10T00:49:48.496Z,8.60
2023-04-10T00:52:15.204Z,8.60
2023-04-10T00:54:41.813Z,7.60
2023-04-10T00:57:08.685Z,8.82
2023-04-10T00:59:35.861Z,8.20
2023-04-10T01:02:02.978Z,7.65
2023-04-10T01:04:31.916Z,9.75
2023-04-10T01:07:12.123Z,8.50
2023-04-10T01:09:44.407Z,7.20
2023-04-10T01:12:36.613Z,8.38
2023-04-10T01:15:17.624Z,8.45
2023-04-10T01:17:44.201Z,9.05
2023-04-10T01:20:19.161Z,10.02
2023-04-10T01:23:00.874Z,9.13
2023-04-10T01:25:45.566Z,8.63
2023-04-10T01:28:40.407Z,8.63
2023-04-10T01:31:11.116Z,8.57
2023-04-10T01:37:13.483Z,8.13
2023-04-10T01:39:56.016Z,7.70
2023-04-10T01:43:16.329Z,9.02
2023-04-10T01:45:52.206Z,7.60
2023-04-10T01:52:08.771Z,7.80
2023-04-10T01:55:05.461Z,8.63
2023-04-10T02:00:40.217Z,6.80
2023-04-10T02:03:15.305Z,8.02
2023-04-10T02:06:35.774Z,8.85
2023-04-10T02:09:50.197Z,10.00
2023-04-10T02:12:48.466Z,7.72
2023-04-10T02:15:24.665Z,6.53
2023-04-10T02:18:17.904Z,8.38
2023-04-10T02:20:48.285Z,6.90
2023-04-10T02:23:36.965Z,7.45
2023-04-10T02:29:38.831Z,6.80
2023-04-10T02:32:25.784Z,8.15
2023-04-10T02:35:07.984Z,7.20
2023-04-10T02:37:42.668Z,7.75
2023-04-10T02:43:20.963Z,6.50
2023-04-10T02:48:40.116Z,7.28
2023-04-10T02:54:36.978Z,7.55
2023-04-10T03:00:25.121Z,6.18
2023-04-10T03:03:43.696Z,5.55
2023-04-10T03:06:17.843Z,6.50
2023-04-10T03:09:03.933Z,6.65
2023-04-10T03:14:25.690Z,5.00
2023-04-10T03:17:00.461Z,7.63
2023-04-10T03:19:38.112Z,5.32
2023-04-10T03:22:42.927Z,7.15
2023-04-10T03:25:25.696Z,5.38
2023-04-10T03:28:28.345Z,6.20
2023-04-10T03:34:01.998Z,4.40
2023-04-10T03:36:45.678Z,5.05
2023-04-10T03:39:36.069Z,5.65
2023-04-10T03:42:11.099Z,5.85
2023-04-10T03:44:56.181Z,4.68
2023-04-10T03:47:33.867Z,4.15
2023-04-10T03:56:32.785Z,4.57
2023-04-10T04:00:18.954Z,4.85
2023-04-10T04:02:38.620Z,5.18
2023-04-10T04:05:31.197Z,4.45
2023-04-10T04:08:40.343Z,3.67
2023-04-10T04:11:09.317Z,4.15
2023-04-10T04:13:42.024Z,3.90
2023-04-10T04:19:45.177Z,4.57
2023-04-10T04:22:40.168Z,3.92
2023-04-10T04:30:57.587Z,3.42
2023-04-10T04:33:24.334Z,3.35
2023-04-10T04:36:01.435Z,3.55
2023-04-10T04:38:43.916Z,4.18
2023-04-10T04:41:20.654Z,3.65
2023-04-10T04:44:10.306Z,3.30
2023-04-10T04:46:45.494Z,3.40
2023-04-10T04:49:33.060Z,3.80
2023-04-10T04:57:43.457Z,3.05
2023-04-10T05:00:21.148Z,4.32
2023-04-10T05:02:54.961Z,4.22
2023-04-10T05:05:35.490Z,4.15
2023-04-10T05:08:12.993Z,5.07
2023-04-10T05:10:57.375Z,4.25
2023-04-10T05:13:32.373Z,4.28
2023-04-10T05:16:27.410Z,3.55
2023-04-10T05:19:04.537Z,3.15
2023-04-10T05:21:43.235Z,3.75
2023-04-10T05:24:21.958Z,4.78
2023-04-10T05:27:55.670Z,3.13
2023-04-10T05:30:45.621Z,3.78
2023-04-10T05:36:10.145Z,2.72
2023-04-10T05:44:23.853Z,4.10
2023-04-10T05:47:00.410Z,3.53
2023-04-10T05:49:52.107Z,3.83
2023-04-10T05:52:20.945Z,3.42
2023-04-10T05:55:00.805Z,4.32
2023-04-10T05:57:39.532Z,2.85
2023-04-10T06:03:09.572Z,2.88
2023-04-10T06:05:51.789Z,4.80
2023-04-10T06:08:46.371Z,3.53
2023-04-10T06:11:14.900Z,4.05
2023-04-10T06:13:52.112Z,2.78
2023-04-10T06:16:47.458Z,3.30
2023-04-10T06:19:48.068Z,3.42
2023-04-10T06:22:25.794Z,3.10
2023-04-10T06:25:12.716Z,3.03
2023-04-10T06:27:42.355Z,3.35
2023-04-10T06:32:57.427Z,4.35
2023-04-10T06:38:33.192Z,3.17
2023-04-10T06:44:38.357Z,4.00
2023-04-10T06:47:12.233Z,4.35
2023-04-10T06:49:50.262Z,3.05
2023-04-10T06:52:20.884Z,3.60
2023-04-10T06:57:49.553Z,3.78
2023-04-10T07:03:34.654Z,2.47
2023-04-10T07:09:08.555Z,2.53
2023-04-10T07:11:43.027Z,2.60
2023-04-10T07:17:33.052Z,3.30
2023-04-10T07:20:19.401Z,2.58
2023-04-10T07:26:12.594Z,2.75
2023-04-10T07:31:28.305Z,2.22
2023-04-10T07:34:01.303Z,3.78
2023-04-10T07:39:21.970Z,2.53
2023-04-10T07:42:17.030Z,3.85
2023-04-10T07:44:46.667Z,2.45
2023-04-10T07:47:32.839Z,2.95
2023-04-10T07:53:20.721Z,3.30
2023-04-10T07:55:54.478Z,2.70
2023-04-10T08:01:50.971Z,2.67
2023-04-10T08:04:24.704Z,2.70
2023-04-10T08:07:23.593Z,2.78
2023-04-10T08:09:50.334Z,2.85
2023-04-10T08:24:24.614Z,2.80
2023-04-10T08:29:37.818Z,2.83
2023-04-10T08:32:27.935Z,4.00
2023-04-10T08:42:56.364Z,5.18
2023-04-10T08:45:39.183Z,2.58
2023-04-10T09:05:46.903Z,2.83
2023-04-10T09:08:48.889Z,4.57
2023-04-10T09:32:02.583Z,4.95
2023-04-10T09:35:27.696Z,2.92
2023-04-10T10:00:53.931Z,4.28
2023-04-10T10:03:31.097Z,2.97
2023-04-10T10:12:54.692Z,4.72
2023-04-10T10:16:08.103Z,3.25
2023-04-10T10:19:07.878Z,3.22
2023-04-10T10:22:04.583Z,2.92
2023-04-10T10:28:23.249Z,2.00
2023-04-10T10:31:16.551Z,2.13
2023-04-10T10:34:13.509Z,4.30
2023-04-10T10:36:52.318Z,2.35
2023-04-10T10:44:00.220Z,4.15
2023-04-10T10:47:12.584Z,2.10
2023-04-10T10:50:04.930Z,2.85
2023-04-10T10:52:58.134Z,3.20
2023-04-10T10:55:40.038Z,3.70
2023-04-10T10:58:26.937Z,1.90
2023-04-10T11:01:11.266Z,3.53
2023-04-10T11:04:08.060Z,3.53
2023-04-10T11:07:12.695Z,4.30
2023-04-10T11:11:19.686Z,1.83
2023-04-10T11:14:10.488Z,2.70
2023-04-10T11:29:28.096Z,2.67
2023-04-10T11:46:31.748Z,3.22
2023-04-10T11:55:02.347Z,2.72
2023-04-10T12:04:04.778Z,2.78
2023-04-10T12:07:13.132Z,2.78
2023-04-10T12:20:07.885Z,2.97
2023-04-10T12:23:09.970Z,3.80
2023-04-10T12:26:41.920Z,2.20
2023-04-10T12:33:12.762Z,3.00
2023-04-10T12:37:32.748Z,2.30
2023-04-10T12:43:23.158Z,4.03
2023-04-10T12:53:26.322Z,2.50
2023-04-10T12:56:29.504Z,2.47
2023-04-10T12:59:55.441Z,3.00
2023-04-10T13:02:26.773Z,4.95
2023-04-10T13:08:19.638Z,3.00
2023-04-10T13:11:12.581Z,2.88
2023-04-10T13:13:48.892Z,2.90
2023-04-10T13:16:21.421Z,2.33
2023-04-10T13:29:45.547Z,2.20
2023-04-10T13:52:38.213Z,1.80
2023-04-10T13:55:20.458Z,2.03
2023-04-10T13:58:15.080Z,1.83
2023-04-10T14:04:21.070Z,2.08
2023-04-10T14:07:00.904Z,1.92
2023-04-10T14:09:39.512Z,2.10
2023-04-10T14:12:26.728Z,2.08
2023-04-10T14:14:53.728Z,1.95
2023-04-10T14:17:27.104Z,2.35
2023-04-10T14:20:04.965Z,2.60
2023-04-10T14:23:10.971Z,2.00
2023-04-10T14:28:36.868Z,1.80
2023-04-10T14:31:16.864Z,1.90
2023-04-10T14:33:48.602Z,2.05
2023-04-10T14:39:38.224Z,2.25
2023-04-10T14:42:07.381Z,2.00
2023-04-10T14:44:37.136Z,2.20
2023-04-10T14:47:17.055Z,1.83
2023-04-10T14:49:58.834Z,2.20
2023-04-10T14:52:28.091Z,1.83
2023-04-10T14:55:45.620Z,2.03
2023-04-10T15:01:17.770Z,1.92
2023-04-10T15:08:41.466Z,1.60
2023-04-10T15:18:04.022Z,2.20
2023-04-10T15:21:23.339Z,2.10
2023-04-10T15:24:03.290Z,3.00
2023-04-10T15:27:02.763Z,2.38
2023-04-10T15:29:40.822Z,2.22
2023-04-10T15:32:09.955Z,1.63
2023-04-10T15:34:36.697Z,2.42
2023-04-10T15:40:30.609Z,2.30
2023-04-10T15:42:57.342Z,2.42
2023-04-10T15:45:32.328Z,2.22
2023-04-10T15:48:13.498Z,2.70
2023-04-10T15:50:52.707Z,2.33
2023-04-10T15:53:36.012Z,3.38
2023-04-10T15:56:44.496Z,2.20
2023-04-10T15:59:12.046Z,2.28
2023-04-10T16:01:49.809Z,2.22
2023-04-10T16:04:19.037Z,3.55
2023-04-10T16:06:57.513Z,3.05
2023-04-10T16:09:35.533Z,2.63
2023-04-10T16:12:20.170Z,2.88
2023-04-10T16:14:52.383Z,2.10
2023-04-10T16:17:20.894Z,1.98
2023-04-10T16:19:52.777Z,2.17
2023-04-10T16:22:31.882Z,2.40
2023-04-10T16:25:05.419Z,2.28
2023-04-10T16:30:25.826Z,1.83
2023-04-10T16:33:06.247Z,3.58
2023-04-10T16:38:33.247Z,1.75
2023-04-10T16:43:53.245Z,2.20
2023-04-10T16:46:40.189Z,2.15
2023-04-10T16:49:17.501Z,1.83
2023-04-10T16:51:58.775Z,1.65
2023-04-10T16:54:35.092Z,1.55
2023-04-10T16:57:03.928Z,2.22
2023-04-10T16:59:40.816Z,1.90
2023-04-10T17:02:23.418Z,2.15
2023-04-10T17:05:32.265Z,2.28
2023-04-10T17:08:01.339Z,2.03
2023-04-10T17:10:29.990Z,1.75
2023-04-10T17:13:10.514Z,2.08
2023-04-10T17:15:43.024Z,1.83
2023-04-10T17:18:26.762Z,1.80
2023-04-10T17:21:59.642Z,2.28
2023-04-10T17:24:35.693Z,2.42
2023-04-10T17:29:47.591Z,2.00
2023-04-10T17:32:27.777Z,1.60
2023-04-10T17:35:00.576Z,1.60
2023-04-10T17:38:15.258Z,4.22
2023-04-10T17:40:55.200Z,1.60
2023-04-10T17:43:52.286Z,2.03
2023-04-10T17:47:05.930Z,2.55
2023-04-10T17:49:50.324Z,1.92
2023-04-10T17:52:20.062Z,2.45
2023-04-10T17:55:35.155Z,2.08
2023-04-10T17:58:16.629Z,1.30
2023-04-10T18:00:48.116Z,1.52
2023-04-10T18:03:28.927Z,1.80
2023-04-10T18:06:03.481Z,1.33
2023-04-10T18:15:23.156Z,1.70
2023-04-10T18:20:54.138Z,2.25
2023-04-10T18:26:31.803Z,3.75
2023-04-10T18:29:16.128Z,1.40
2023-04-10T18:32:21.629Z,1.63
2023-04-10T18:38:04.464Z,1.25
2023-04-10T18:40:53.684Z,1.38
2023-04-10T18:49:19.460Z,1.73
2023-04-10T18:51:56.043Z,1.30
2023-04-10T18:57:10.885Z,1.20
2023-04-10T19:03:30.894Z,1.92
2023-04-10T19:05:41.048Z,1.58
2023-04-10T19:08:50.792Z,1.60
2023-04-10T19:11:45.991Z,1.92
2023-04-10T19:17:19.939Z,2.88
2023-04-10T19:23:17.779Z,2.38
2023-04-10T19:25:46.592Z,1.65
2023-04-10T19:29:00.444Z,2.20
2023-04-10T19:31:43.928Z,1.23
2023-04-10T19:37:11.441Z,2.05
2023-04-10T19:39:49.868Z,1.67
2023-04-10T19:42:58.798Z,1.98
2023-04-10T19:45:45.789Z,2.50
2023-04-10T19:49:17.308Z,1.90
2023-04-10T19:51:52.242Z,5.28
2023-04-10T19:54:20.709Z,1.47
2023-04-10T19:57:04.463Z,5.18
2023-04-10T20:02:52.168Z,1.00
2023-04-10T20:05:25.571Z,4.63
2023-04-10T20:08:01.157Z,1.42
2023-04-10T20:10:43.470Z,1.67
2023-04-10T20:13:28.341Z,1.42
2023-04-10T20:16:09.996Z,2.97
2023-04-10T20:24:37.966Z,1.75
2023-04-10T20:27:57.073Z,2.50
2023-04-10T20:30:29.153Z,1.60
2023-04-10T20:35:43.742Z,3.63
2023-04-10T20:40:58.842Z,1.35
2023-04-10T20:43:40.054Z,1.67
2023-04-10T20:46:35.328Z,1.58
2023-04-10T20:49:04.961Z,2.78
2023-04-10T21:00:05.613Z,3.30
2023-04-10T21:02:39.179Z,3.55
2023-04-10T21:05:17.672Z,5.55
2023-04-10T21:07:51.413Z,7.53
2023-04-10T21:10:20.492Z,2.83
2023-04-10T21:12:56.823Z,6.22
2023-04-10T21:18:14.926Z,4.60
2023-04-10T21:20:54.912Z,5.90
2023-04-10T21:26:07.977Z,6.70
2023-04-10T21:29:00.306Z,7.28
2023-04-10T21:31:49.322Z,4.93
2023-04-10T21:37:23.040Z,7.18
2023-04-10T21:42:54.767Z,6.57
2023-04-10T21:49:01.688Z,6.32
2023-04-10T21:51:54.827Z,9.52
2023-04-10T21:55:06.552Z,8.10
2023-04-10T21:57:34.845Z,7.10
2023-04-10T22:00:07.107Z,9.68
2023-04-10T22:08:08.212Z,10.67
2023-04-10T22:10:47.310Z,6.90
2023-04-10T22:16:34.768Z,7.78
2023-04-10T22:22:07.435Z,9.43
2023-04-10T22:27:51.492Z,5.43
2023-04-10T22:30:33.593Z,4.70
2023-04-10T22:35:54.554Z,5.53
2023-04-10T22:38:38.896Z,4.45
2023-04-10T22:41:13.197Z,5.00
2023-04-10T22:47:00.074Z,4.88
2023-04-10T22:53:06.846Z,6.55
2023-04-10T22:56:05.996Z,6.30
2023-04-10T22:58:35.371Z,2.53
2023-04-10T23:01:40.923Z,3.35
2023-04-10T23:04:27.966Z,2.53
2023-04-10T23:09:51.366Z,3.03
2023-04-10T23:23:50.201Z,3.13
2023-04-10T23:26:34.367Z,5.43
2023-04-10T23:29:11.215Z,5.55
2023-04-10T23:31:46.206Z,3.50
2023-04-10T23:34:15.538Z,7.30
2023-04-10T23:36:51.081Z,2.70
2023-04-10T23:44:55.265Z,4.15
2023-04-10T23:47:30.216Z,4.72
2023-04-10T23:53:01.846Z,4.45
2023-04-10T23:55:34.171Z,4.20
2023-04-10T23:58:03.206Z,4.40
